TimeCDT,TemperatureF,Dew PointF,Humidity,Sea Level PressureIn,VisibilityMPH,Wind Direction,Wind SpeedMPH,Gust SpeedMPH,PrecipitationIn,Events,Conditions,WindDirDegrees,DateUTC
12:15 AM,46.6,34.7,63,29.95,10.0,North,6.9,-,N/A,,Clear,360,2012-11-02 05:15:00
12:35 AM,44.8,34.3,67,29.95,10.0,North,4.6,-,N/A,,Clear,350,2012-11-02 05:35:00
12:55 AM,43.3,33.8,69,29.96,10.0,North,5.8,-,N/A,,Clear,350,2012-11-02 05:55:00
1:15 AM,42.1,33.4,71,29.96,10.0,NNW,5.8,-,N/A,,Clear,330,2012-11-02 06:15:00
1:35 AM,41.4,32.9,72,29.96,10.0,NNW,5.8,-,N/A,,Clear,340,2012-11-02 06:35:00
1:55 AM,41.0,32.4,71,29.97,10.0,NNW,6.9,-,N/A,,Clear,340,2012-11-02 06:55:00
2:15 AM,42.1,32.0,67,29.97,10.0,North,8.1,-,N/A,,Clear,350,2012-11-02 07:15:00
2:35 AM,41.0,32.0,70,29.97,10.0,North,6.9,-,N/A,,Clear,350,2012-11-02 07:35:00
2:55 AM,40.5,32.0,72,29.98,10.0,North,6.9,-,N/A,,Clear,360,2012-11-02 07:55:00
3:15 AM,40.3,32.0,72,29.98,10.0,North,6.9,-,N/A,,Clear,360,2012-11-02 08:15:00
3:35 AM,40.1,32.0,73,29.99,10.0,North,6.9,-,N/A,,Clear,360,2012-11-02 08:35:00
3:55 AM,39.6,32.0,74,29.99,10.0,North,6.9,-,N/A,,Clear,360,2012-11-02 08:55:00
4:15 AM,38.8,31.8,76,30.00,10.0,North,6.9,-,N/A,,Clear,10,2012-11-02 09:15:00
4:35 AM,38.3,31.6,77,30.00,10.0,North,5.8,-,N/A,,Clear,360,2012-11-02 09:35:00
4:55 AM,37.6,31.3,78,30.01,10.0,North,4.6,-,N/A,,Clear,350,2012-11-02 09:55:00
5:15 AM,36.5,31.1,81,30.02,10.0,North,4.6,-,N/A,,Clear,350,2012-11-02 10:15:00
5:35 AM,36.1,30.9,81,30.03,10.0,North,5.8,-,N/A,,Clear,350,2012-11-02 10:35:00
5:55 AM,36.9,31.1,80,30.03,10.0,North,4.6,-,N/A,,Clear,360,2012-11-02 10:55:00
6:15 AM,37.6,30.9,77,30.03,10.0,North,4.6,-,N/A,,Clear,10,2012-11-02 11:15:00
6:35 AM,36.5,30.6,79,30.04,10.0,North,4.6,-,N/A,,Clear,360,2012-11-02 11:35:00
6:55 AM,36.5,30.2,78,30.04,10.0,North,3.5,-,N/A,,Clear,10,2012-11-02 11:55:00
7:15 AM,36.0,30.2,80,30.05,10.0,North,4.6,-,N/A,,Clear,10,2012-11-02 12:15:00
7:35 AM,36.0,30.2,80,30.05,10.0,North,3.5,-,N/A,,Clear,10,2012-11-02 12:35:00
7:55 AM,35.8,30.2,80,30.06,10.0,NNE,3.5,-,N/A,,Clear,20,2012-11-02 12:55:00
8:15 AM,37.4,30.2,75,30.07,10.0,Calm,Calm,-,N/A,,Clear,0,2012-11-02 13:15:00
8:35 AM,37.8,31.1,77,30.08,10.0,Calm,Calm,-,N/A,,Clear,0,2012-11-02 13:35:00
8:55 AM,38.7,31.5,75,30.10,10.0,NE,4.6,-,N/A,,Clear,40,2012-11-02 13:55:00
9:15 AM,39.7,32.0,74,30.10,10.0,NE,6.9,-,N/A,,Clear,40,2012-11-02 14:15:00
9:35 AM,41.4,32.4,70,30.10,10.0,NE,8.1,-,N/A,,Clear,40,2012-11-02 14:35:00
9:55 AM,42.8,32.7,68,30.09,10.0,ENE,9.2,-,N/A,,Clear,70,2012-11-02 14:55:00
10:15 AM,43.5,32.4,65,30.10,10.0,East,8.1,-,N/A,,Clear,80,2012-11-02 15:15:00
10:35 AM,44.1,32.7,64,30.10,10.0,ENE,6.9,-,N/A,,Clear,70,2012-11-02 15:35:00
10:55 AM,45.3,33.6,64,30.11,10.0,ENE,4.6,-,N/A,,Scattered Clouds,60,2012-11-02 15:55:00
11:15 AM,46.6,33.3,60,30.11,10.0,East,5.8,-,N/A,,Clear,90,2012-11-02 16:15:00
11:35 AM,47.5,33.3,58,30.11,10.0,ENE,8.1,-,N/A,,Clear,60,2012-11-02 16:35:00
11:55 AM,48.2,33.3,56,30.10,10.0,East,6.9,-,N/A,,Clear,100,2012-11-02 16:55:00
12:15 PM,49.8,32.5,51,30.10,10.0,ESE,9.2,-,N/A,,Clear,110,2012-11-02 17:15:00
12:35 PM,49.5,31.8,51,30.10,10.0,ENE,4.6,-,N/A,,Clear,70,2012-11-02 17:35:00
12:55 PM,50.9,32.7,50,30.08,10.0,NE,6.9,-,N/A,,Clear,50,2012-11-02 17:55:00
1:15 PM,51.4,31.6,47,30.08,10.0,East,5.8,-,N/A,,Clear,90,2012-11-02 18:15:00
1:35 PM,51.4,32.4,48,30.07,10.0,ENE,8.1,-,N/A,,Clear,60,2012-11-02 18:35:00
1:55 PM,52.0,31.5,46,30.06,10.0,East,5.8,-,N/A,,Clear,90,2012-11-02 18:55:00
2:15 PM,52.7,32.0,45,30.05,10.0,East,5.8,-,N/A,,Clear,90,2012-11-02 19:15:00
2:35 PM,53.6,32.0,44,30.05,10.0,ENE,9.2,-,N/A,,Clear,70,2012-11-02 19:35:00
2:55 PM,53.8,30.9,42,30.05,10.0,ENE,8.1,-,N/A,,Clear,70,2012-11-02 19:55:00
3:15 PM,53.4,30.7,42,30.04,10.0,ENE,9.2,-,N/A,,Clear,60,2012-11-02 20:15:00
3:35 PM,53.4,30.2,41,30.04,10.0,ENE,9.2,-,N/A,,Clear,70,2012-11-02 20:35:00
3:55 PM,53.1,30.6,42,30.05,10.0,East,8.1,-,N/A,,Clear,80,2012-11-02 20:55:00
4:15 PM,53.2,30.4,42,30.05,10.0,East,6.9,-,N/A,,Clear,90,2012-11-02 21:15:00
4:35 PM,53.6,30.2,41,30.04,10.0,East,8.1,-,N/A,,Clear,90,2012-11-02 21:35:00
4:55 PM,52.9,30.6,43,30.04,10.0,East,8.1,-,N/A,,Clear,90,2012-11-02 21:55:00
5:15 PM,52.2,30.2,43,30.04,10.0,East,10.4,-,N/A,,Clear,90,2012-11-02 22:15:00
5:35 PM,51.3,30.6,45,30.04,10.0,East,6.9,-,N/A,,Clear,80,2012-11-02 22:35:00
5:55 PM,49.8,30.9,48,30.05,10.0,ENE,5.8,-,N/A,,Clear,60,2012-11-02 22:55:00
6:15 PM,49.1,30.9,50,30.05,10.0,ENE,4.6,-,N/A,,Clear,70,2012-11-02 23:15:00
6:55 PM,47.5,31.8,55,30.04,10.0,East,5.8,-,N/A,,Clear,80,2012-11-02 23:55:00
7:15 PM,47.8,31.8,54,30.05,10.0,East,5.8,-,N/A,,Clear,80,2012-11-03 00:15:00
7:35 PM,48.0,31.8,54,30.05,10.0,East,5.8,-,N/A,,Clear,90,2012-11-03 00:35:00
7:55 PM,47.7,32.0,55,30.05,10.0,East,5.8,-,N/A,,Clear,80,2012-11-03 00:55:00
8:15 PM,47.3,32.0,55,30.05,10.0,East,5.8,-,N/A,,Clear,80,2012-11-03 01:15:00
8:35 PM,47.1,32.0,56,30.05,10.0,East,4.6,-,N/A,,Clear,80,2012-11-03 01:35:00
8:55 PM,46.6,32.0,57,30.05,10.0,East,5.8,-,N/A,,Clear,80,2012-11-03 01:55:00
9:15 PM,45.9,32.0,58,30.05,10.0,East,5.8,-,N/A,,Clear,90,2012-11-03 02:15:00
9:35 PM,46.4,32.0,57,30.06,10.0,ENE,4.6,-,N/A,,Clear,70,2012-11-03 02:35:00
9:55 PM,44.6,32.0,61,30.06,10.0,East,5.8,-,N/A,,Clear,80,2012-11-03 02:55:00
10:15 PM,43.3,32.0,64,30.08,10.0,NE,4.6,-,N/A,,Clear,50,2012-11-03 03:15:00
10:35 PM,42.3,32.0,67,30.08,10.0,ENE,4.6,-,N/A,,Clear,60,2012-11-03 03:35:00
10:55 PM,42.4,32.0,67,30.07,10.0,ENE,5.8,-,N/A,,Clear,70,2012-11-03 03:55:00
11:15 PM,43.5,32.0,64,30.06,10.0,ENE,8.1,-,N/A,,Clear,70,2012-11-03 04:15:00
11:35 PM,42.3,32.0,67,30.06,10.0,East,6.9,-,N/A,,Scattered Clouds,80,2012-11-03 04:35:00
11:55 PM,42.4,32.2,67,30.06,10.0,ENE,6.9,-,N/A,,Scattered Clouds,70,2012-11-03 04:55:00